Time;durP1;ratioP1;P1;durP2;ratioP2;P2;SDS_P1;SDS_P2;PMS_P1;PMS_P2;Temp;Humidity;BMP_temperature;BMP_pressure;BME280_temperature;BME280_humidity;BME280_pressure;Samples;Min_cycle;Max_cycle;Signal;HPM_P1;HPM_P2
2021/09/24 00:02:02;;;;;;;13.20;4.65;;;12.00;99.90;;;;;;5105751;28;20337;-81
2021/09/24 00:04:30;;;;;;;10.40;3.95;;;12.00;99.90;;;;;;5105573;28;20031;-81
2021/09/24 00:06:56;;;;;;;10.43;4.75;;;11.90;99.90;;;;;;5105875;28;20110;-82
2021/09/24 00:09:21;;;;;;;;;;;11.90;99.90;;;;;;5106478;28;20118;-82
2021/09/24 00:11:47;;;;;;;11.98;4.75;;;11.90;99.90;;;;;;5106614;28;19911;-82
2021/09/24 00:14:12;;;;;;;;;;;11.90;99.90;;;;;;5107844;28;20020;-81
2021/09/24 00:16:39;;;;;;;14.68;4.70;;;11.90;99.90;;;;;;5106701;28;19903;-82
2021/09/24 00:19:05;;;;;;;9.15;4.45;;;11.80;99.90;;;;;;5105849;28;20062;-81
2021/09/24 00:21:31;;;;;;;;;;;11.80;99.90;;;;;;5106282;28;20023;-81
2021/09/24 00:23:57;;;;;;;8.38;4.00;;;11.80;99.90;;;;;;5107231;28;19918;-81
2021/09/24 00:26:23;;;;;;;7.97;4.50;;;11.70;99.90;;;;;;5106869;28;20024;-81
2021/09/24 00:28:49;;;;;;;;;;;11.60;99.90;;;;;;5106929;28;20091;-80
2021/09/24 00:31:14;;;;;;;10.68;4.22;;;11.60;99.90;;;;;;5106923;28;19910;-80
2021/09/24 00:33:40;;;;;;;;;;;11.60;99.90;;;;;;5106912;28;20454;-80
2021/09/24 00:36:06;;;;;;;11.63;4.20;;;11.60;99.90;;;;;;5106879;28;19903;-81
2021/09/24 00:38:35;;;;;;;8.13;4.30;;;11.60;99.90;;;;;;5106590;28;20051;-81
2021/09/24 00:41:01;;;;;;;12.55;3.95;;;11.60;99.90;;;;;;5106537;28;20031;-80
2021/09/24 00:43:26;;;;;;;;;;;11.70;99.90;;;;;;5108806;28;20035;-80
2021/09/24 00:45:52;;;;;;;7.82;3.75;;;11.70;99.90;;;;;;5109212;28;19907;-81
2021/09/24 00:48:18;;;;;;;;;;;11.70;99.90;;;;;;5110999;28;20020;-80
2021/09/24 00:50:43;;;;;;;9.20;3.55;;;11.70;99.90;;;;;;5110561;28;20579;-79
2021/09/24 00:53:10;;;;;;;;;;;11.70;99.90;;;;;;5109711;28;20055;-80
2021/09/24 00:55:36;;;;;;;8.50;4.35;;;11.70;99.90;;;;;;5108316;28;19908;-79
2021/09/24 00:58:02;;;;;;;11.02;4.70;;;11.70;99.90;;;;;;5110392;28;20405;-79
2021/09/24 01:00:27;;;;;;;;;;;11.70;99.90;;;;;;5108930;28;20483;-81
2021/09/24 01:02:53;;;;;;;11.05;4.00;;;11.70;99.90;;;;;;5110287;28;20394;-80
2021/09/24 01:05:18;;;;;;;;;;;11.70;99.90;;;;;;5110644;28;20054;-80
2021/09/24 01:07:47;;;;;;;10.50;4.75;;;11.70;99.90;;;;;;5109872;28;19912;-80
2021/09/24 01:10:15;;;;;;;9.77;4.32;;;11.60;99.90;;;;;;5108330;28;20028;-78
2021/09/24 01:12:40;;;;;;;8.77;3.67;;;11.60;99.90;;;;;;5108916;28;20036;-79
2021/09/24 01:15:08;;;;;;;;;;;11.60;99.90;;;;;;5110376;28;20031;-81
2021/09/24 01:17:34;;;;;;;8.90;3.70;;;11.60;99.90;;;;;;5109742;28;19973;-79
2021/09/24 01:20:00;;;;;;;;;;;11.60;99.90;;;;;;5109209;28;20044;-80
2021/09/24 01:22:26;;;;;;;6.10;3.80;;;11.60;99.90;;;;;;5109143;28;19919;-78
2021/09/24 01:24:51;;;;;;;;;;;11.60;99.90;;;;;;5110309;28;20038;-80
2021/09/24 01:27:17;;;;;;;15.63;4.05;;;11.70;99.90;;;;;;5107954;28;20006;-80
2021/09/24 01:29:42;;;;;;;;;;;11.70;99.90;;;;;;5110021;28;20032;-81
2021/09/24 01:32:08;;;;;;;8.60;3.50;;;11.70;99.90;;;;;;5108490;28;20357;-80
2021/09/24 01:34:34;;;;;;;;;;;11.70;99.90;;;;;;5108628;28;20039;-82
2021/09/24 01:37:00;;;;;;;9.45;3.53;;;11.70;99.90;;;;;;5109467;28;19942;-80
2021/09/24 01:39:25;;;;;;;;;;;11.70;99.90;;;;;;5109770;28;20024;-80
2021/09/24 01:41:52;;;;;;;7.13;3.30;;;11.70;99.90;;;;;;5107918;28;20378;-82
2021/09/24 01:44:18;;;;;;;9.70;3.50;;;11.70;99.90;;;;;;5108195;28;20032;-79
2021/09/24 01:46:45;;;;;;;;;;;11.70;99.90;;;;;;5108371;28;20024;-80
2021/09/24 01:49:11;;;;;;;8.85;4.03;;;11.70;99.90;;;;;;5109296;28;19930;-82
2021/09/24 01:51:37;;;;;;;;;;;11.70;99.90;;;;;;5110036;28;20396;-81
2021/09/24 01:54:04;;;;;;;8.75;4.18;;;11.70;99.90;;;;;;5108111;28;19907;-79
2021/09/24 01:56:30;;;;;;;8.98;3.58;;;11.70;99.90;;;;;;5107521;28;20055;-80
2021/09/24 01:58:56;;;;;;;10.45;4.18;;;11.70;99.90;;;;;;5107475;28;20377;-80
2021/09/24 02:01:21;;;;;;;;;;;11.60;99.90;;;;;;5108008;28;20027;-81
2021/09/24 02:03:47;;;;;;;7.13;3.72;;;11.60;99.90;;;;;;5109043;28;20372;-81
2021/09/24 02:06:13;;;;;;;;;;;11.60;99.90;;;;;;5109218;28;20031;-81
2021/09/24 02:08:38;;;;;;;8.77;3.75;;;11.50;99.90;;;;;;5111516;28;20385;-81
2021/09/24 02:11:05;;;;;;;;;;;11.50;99.90;;;;;;5109276;28;20034;-81
2021/09/24 02:13:31;;;;;;;14.10;4.97;;;11.40;99.90;;;;;;5109161;28;19919;-81
2021/09/24 02:15:57;;;;;;;;;;;11.40;99.90;;;;;;5107789;28;20440;-82
2021/09/24 02:18:23;;;;;;;13.52;5.47;;;11.30;99.90;;;;;;5107815;28;19912;-81
2021/09/24 02:20:48;;;;;;;;;;;11.30;99.90;;;;;;5107981;28;20036;-82
2021/09/24 02:23:14;;;;;;;8.40;3.90;;;11.20;99.90;;;;;;5108779;28;19928;-80
2021/09/24 02:25:40;;;;;;;;;;;11.10;99.90;;;;;;5108157;28;20034;-80
2021/09/24 02:28:05;;;;;;;8.18;4.03;;;11.00;99.90;;;;;;5108503;28;20394;-80
2021/09/24 02:30:31;;;;;;;;;;;11.00;99.90;;;;;;5108884;28;20036;-78
2021/09/24 02:32:57;;;;;;;9.95;4.03;;;10.90;99.90;;;;;;5108223;28;19912;-79
2021/09/24 02:35:22;;;;;;;;;;;10.80;99.90;;;;;;5108665;28;20027;-79
2021/09/24 02:37:48;;;;;;;7.65;3.45;;;10.80;99.90;;;;;;5108090;28;19946;-79
2021/09/24 02:40:14;;;;;;;;;;;10.70;99.90;;;;;;5108211;28;20507;-78
2021/09/24 02:42:39;;;;;;;12.57;3.90;;;10.70;99.90;;;;;;5106672;28;19916;-78
2021/09/24 02:45:05;;;;;;;;;;;10.60;99.90;;;;;;5108806;28;20020;-80
2021/09/24 02:47:31;;;;;;;7.30;4.40;;;10.60;99.90;;;;;;5107918;28;20018;-79
2021/09/24 02:49:57;;;;;;;;;;;10.50;99.90;;;;;;5108490;28;20034;-78
2021/09/24 02:52:22;;;;;;;11.02;5.35;;;10.50;99.90;;;;;;5106654;28;19954;-79
2021/09/24 02:54:48;;;;;;;;;;;10.50;99.90;;;;;;5108380;28;20036;-79
2021/09/24 02:57:13;;;;;;;16.23;5.47;;;10.40;99.90;;;;;;5106446;28;19908;-78
2021/09/24 02:59:39;;;;;;;;;;;10.40;99.90;;;;;;5107971;28;20399;-78
2021/09/24 03:02:05;;;;;;;9.68;4.25;;;10.40;99.90;;;;;;5107918;28;19911;-79
2021/09/24 03:04:30;;;;;;;;;;;10.30;99.90;;;;;;5108095;28;20044;-79
2021/09/24 03:06:56;;;;;;;8.88;4.65;;;10.30;99.90;;;;;;5106442;28;20364;-79
2021/09/24 03:09:21;;;;;;;;;;;10.30;99.90;;;;;;5106519;28;20027;-78
2021/09/24 03:11:47;;;;;;;9.27;4.28;;;10.20;99.90;;;;;;5107199;28;20083;-78
2021/09/24 03:14:12;;;;;;;;;;;10.20;99.90;;;;;;5108578;28;20400;-78
2021/09/24 03:16:38;;;;;;;7.90;4.15;;;10.20;99.90;;;;;;5107944;28;19908;-79
2021/09/24 03:19:04;;;;;;;;;;;10.10;99.90;;;;;;5108144;28;20058;-80
2021/09/24 03:21:30;;;;;;;11.10;5.10;;;10.10;99.90;;;;;;5107528;28;20526;-79
2021/09/24 03:23:56;;;;;;;;;;;10.10;99.90;;;;;;5107722;28;20024;-81
2021/09/24 03:26:21;;;;;;;8.82;4.97;;;10.00;99.90;;;;;;5106039;28;19908;-79
2021/09/24 03:28:47;;;;;;;;;;;9.90;99.90;;;;;;5108525;28;20055;-80
2021/09/24 03:31:14;;;;;;;9.13;5.20;;;10.00;99.90;;;;;;5107639;28;19994;-80
2021/09/24 03:33:40;;;;;;;11.70;5.40;;;9.90;99.90;;;;;;5107569;28;20241;-80
2021/09/24 03:36:05;;;;;;;;;;;9.90;99.90;;;;;;5107439;28;20468;-79
2021/09/24 03:38:31;;;;;;;12.63;5.35;;;9.90;99.90;;;;;;5107008;28;20397;-80
2021/09/24 03:40:57;;;;;;;;;;;9.90;99.90;;;;;;5108053;28;20519;-81
2021/09/24 03:43:22;;;;;;;10.50;5.35;;;9.90;99.90;;;;;;5107254;28;19922;-79
2021/09/24 03:45:48;;;;;;;;;;;9.90;99.90;;;;;;5106501;28;20028;-78
2021/09/24 03:48:14;;;;;;;12.35;5.57;;;9.90;99.90;;;;;;5107256;28;19995;-80
2021/09/24 03:50:39;;;;;;;;;;;9.90;99.90;;;;;;5107051;28;20019;-80
2021/09/24 03:53:05;;;;;;;10.20;5.78;;;9.90;99.90;;;;;;5105641;28;20375;-82
2021/09/24 03:55:31;;;;;;;10.82;5.60;;;9.90;99.90;;;;;;5107033;28;20031;-78
2021/09/24 03:57:56;;;;;;;8.77;4.57;;;9.90;99.90;;;;;;5107019;28;20039;-80
2021/09/24 04:00:22;;;;;;;;;;;9.90;99.90;;;;;;5107757;28;20106;-79
2021/09/24 04:02:48;;;;;;;8.63;4.55;;;9.90;99.90;;;;;;5105808;28;19911;-78
2021/09/24 04:05:13;;;;;;;;;;;9.90;99.90;;;;;;5105708;28;20028;-80
2021/09/24 04:07:39;;;;;;;14.73;5.50;;;9.90;99.90;;;;;;5107143;28;19908;-80
2021/09/24 04:10:05;;;;;;;;;;;10.00;99.90;;;;;;5105750;28;20289;-79
2021/09/24 04:12:30;;;;;;;6.47;3.72;;;10.00;99.90;;;;;;5107171;28;19965;-80
2021/09/24 04:14:56;;;;;;;;;;;10.10;99.90;;;;;;5107368;28;20023;-82
2021/09/24 04:17:22;;;;;;;8.48;4.40;;;10.20;99.90;;;;;;5107555;28;19907;-80
2021/09/24 04:19:47;;;;;;;11.07;5.10;;;10.30;99.90;;;;;;5109619;28;20048;-80
2021/09/24 04:22:13;;;;;;;;;;;10.30;99.90;;;;;;5111403;28;20043;-80
2021/09/24 04:24:38;;;;;;;10.77;5.03;;;10.30;99.90;;;;;;5109391;28;19904;-79
2021/09/24 04:27:04;;;;;;;;;;;10.30;99.90;;;;;;5111462;28;20036;-78
2021/09/24 04:29:30;;;;;;;12.57;4.40;;;10.40;99.90;;;;;;5111439;28;19904;-79
2021/09/24 04:31:56;;;;;;;9.43;5.15;;;10.40;99.90;;;;;;5110055;28;20031;-80
2021/09/24 04:34:21;;;;;;;;;;;10.50;99.90;;;;;;5111831;28;20032;-80
2021/09/24 04:36:47;;;;;;;10.02;4.68;;;10.60;99.90;;;;;;5110847;28;19959;-81
2021/09/24 04:39:12;;;;;;;;;;;10.60;99.90;;;;;;5110691;28;20064;-81
2021/09/24 04:41:38;;;;;;;14.68;4.43;;;10.70;99.90;;;;;;5109800;28;19987;-83
2021/09/24 04:44:04;;;;;;;;;;;10.80;99.90;;;;;;5111233;28;20027;-82
2021/09/24 04:46:30;;;;;;;12.40;4.47;;;10.90;99.90;;;;;;5109276;28;19907;-80
2021/09/24 04:48:57;;;;;;;9.90;4.28;;;10.90;99.90;;;;;;5110820;28;20031;-79
2021/09/24 04:51:23;;;;;;;10.40;4.47;;;11.10;99.90;;;;;;5110739;28;20076;-79
2021/09/24 04:53:48;;;;;;;;;;;11.10;99.90;;;;;;5109282;28;20039;-79
2021/09/24 04:56:14;;;;;;;10.85;4.65;;;11.20;99.90;;;;;;5108716;28;19953;-79
2021/09/24 04:58:40;;;;;;;;;;;11.30;99.90;;;;;;5111090;28;20020;-80
2021/09/24 05:01:05;;;;;;;9.23;3.85;;;11.40;99.90;;;;;;5109373;28;19903;-80
2021/09/24 05:03:31;;;;;;;;;;;11.40;99.90;;;;;;5110553;28;20043;-79
2021/09/24 05:05:56;;;;;;;9.63;4.22;;;11.50;99.90;;;;;;5108227;28;19926;-80
2021/09/24 05:08:22;;;;;;;;;;;11.60;99.90;;;;;;5109352;28;20032;-80
2021/09/24 05:10:48;;;;;;;9.88;4.13;;;11.70;99.90;;;;;;5109844;28;20368;-81
2021/09/24 05:13:13;;;;;;;;;;;11.70;99.90;;;;;;5109540;28;20096;-80
2021/09/24 05:15:39;;;;;;;10.55;4.30;;;11.70;99.90;;;;;;5109563;28;19914;-80
2021/09/24 05:18:06;;;;;;;;;;;11.90;99.90;;;;;;5108855;28;20074;-80
2021/09/24 05:20:32;;;;;;;10.18;3.90;;;12.00;99.90;;;;;;5109946;28;20504;-80
2021/09/24 05:22:58;;;;;;;;;;;12.00;99.90;;;;;;5109645;28;20096;-80
2021/09/24 05:25:23;;;;;;;10.32;3.63;;;12.10;99.90;;;;;;5109523;28;19914;-80
2021/09/24 05:27:49;;;;;;;;;;;12.10;99.90;;;;;;5110105;28;20495;-79
2021/09/24 05:30:15;;;;;;;7.68;3.53;;;12.20;99.90;;;;;;5108406;28;19903;-80
2021/09/24 05:32:41;;;;;;;11.60;3.33;;;12.30;99.90;;;;;;5109891;28;20036;-78
2021/09/24 05:35:07;;;;;;;;;;;12.40;99.90;;;;;;5109436;28;20026;-79
2021/09/24 05:37:33;;;;;;;13.15;3.95;;;12.50;99.90;;;;;;5109312;28;20373;-78
2021/09/24 05:39:59;;;;;;;;;;;12.50;99.90;;;;;;5109459;28;20028;-80
2021/09/24 05:42:24;;;;;;;10.20;3.65;;;12.60;99.90;;;;;;5107960;28;19912;-79
2021/09/24 05:44:50;;;;;;;;;;;12.60;99.90;;;;;;5110150;28;20107;-78
2021/09/24 05:47:16;;;;;;;8.73;4.38;;;12.60;99.90;;;;;;5109122;28;19907;-79
2021/09/24 05:49:42;;;;;;;;;;;12.60;99.90;;;;;;5109787;28;20020;-79
2021/09/24 05:52:07;;;;;;;9.32;4.28;;;12.60;99.90;;;;;;5109145;28;19907;-80
2021/09/24 05:54:33;;;;;;;;;;;12.60;99.90;;;;;;5109690;28;20500;-79
2021/09/24 05:56:59;;;;;;;14.18;4.30;;;12.70;99.90;;;;;;5108325;28;20157;-79
2021/09/24 05:59:24;;;;;;;;;;;12.70;99.90;;;;;;5109773;28;20076;-79
2021/09/24 06:01:50;;;;;;;11.63;3.85;;;12.80;99.90;;;;;;5108737;28;19939;-80
2021/09/24 06:04:16;;;;;;;;;;;12.90;99.90;;;;;;5108175;28;20075;-78
2021/09/24 06:06:42;;;;;;;11.13;3.30;;;12.90;99.90;;;;;;5108779;28;19904;-77
2021/09/24 06:09:07;;;;;;;;;;;13.00;99.90;;;;;;5109427;28;20023;-79
2021/09/24 06:11:34;;;;;;;9.43;3.45;;;13.20;99.90;;;;;;5107900;28;19908;-81
2021/09/24 06:14:00;;;;;;;6.20;3.45;;;13.30;99.90;;;;;;5107517;28;20073;-80
2021/09/24 06:16:25;;;;;;;;;;;13.50;99.90;;;;;;5107697;28;20047;-79
2021/09/24 06:18:51;;;;;;;10.27;3.65;;;13.70;99.90;;;;;;5109243;28;19924;-79
2021/09/24 06:21:18;;;;;;;6.38;3.20;;;14.00;99.90;;;;;;5108556;28;20472;-80
2021/09/24 06:23:45;;;;;;;7.53;3.05;;;14.40;99.90;;;;;;5107225;28;20126;-80
2021/09/24 06:26:11;;;;;;;8.05;3.25;;;14.80;99.90;;;;;;5108683;28;20027;-79
2021/09/24 06:28:37;;;;;;;6.55;2.30;;;15.40;99.90;;;;;;5107045;28;20825;-80
2021/09/24 06:31:03;;;;;;;5.43;3.10;;;15.90;99.90;;;;;;5106818;28;20036;-79
2021/09/24 06:33:29;;;;;;;8.80;3.42;;;16.60;98.10;;;;;;5108932;28;20030;-80
2021/09/24 06:35:54;;;;;;;7.65;2.90;;;17.20;96.60;;;;;;5107688;28;20019;-80
2021/09/24 06:38:20;;;;;;;7.38;2.45;;;17.80;94.60;;;;;;5108198;28;20040;-80
2021/09/24 06:40:46;;;;;;;5.00;2.55;;;18.30;93.40;;;;;;5107734;28;20024;-80
2021/09/24 06:43:12;;;;;;;6.80;3.05;;;18.60;91.40;;;;;;5108248;28;20039;-80
2021/09/24 06:45:38;;;;;;;7.57;3.25;;;18.60;90.20;;;;;;5108270;28;20098;-80
2021/09/24 06:48:05;;;;;;;5.43;2.65;;;18.40;90.40;;;;;;5108421;28;20120;-80
2021/09/24 06:50:31;;;;;;;6.70;3.08;;;18.10;90.80;;;;;;5106597;28;20019;-79
2021/09/24 06:52:57;;;;;;;8.85;2.70;;;17.70;91.50;;;;;;5107796;28;20035;-78
2021/09/24 06:55:25;;;;;;;6.47;3.28;;;17.40;92.40;;;;;;5108266;28;20024;-79
2021/09/24 06:57:52;;;;;;;5.10;2.97;;;17.10;92.90;;;;;;5107580;28;20080;-80
2021/09/24 07:00:18;;;;;;;6.82;3.03;;;16.90;93.50;;;;;;5107971;28;20034;-79
2021/09/24 07:02:43;;;;;;;9.20;4.50;;;16.90;93.70;;;;;;5107876;28;20039;-80
2021/09/24 07:05:10;;;;;;;8.88;2.90;;;16.90;93.60;;;;;;5107519;28;20055;-80
2021/09/24 07:07:35;;;;;;;6.95;3.10;;;16.90;94.10;;;;;;5106973;28;20298;-78
2021/09/24 07:10:02;;;;;;;7.03;3.17;;;17.00;94.20;;;;;;5107824;28;20396;-79
2021/09/24 07:12:27;;;;;;;6.72;3.03;;;17.30;93.70;;;;;;5107221;28;20068;-80
2021/09/24 07:14:53;;;;;;;7.43;3.35;;;17.60;92.90;;;;;;5107957;28;20027;-80
2021/09/24 07:17:19;;;;;;;7.63;2.78;;;17.90;92.50;;;;;;5107895;28;20086;-80
2021/09/24 07:19:44;;;;;;;5.28;2.75;;;18.40;91.70;;;;;;5106967;28;20575;-79
2021/09/24 07:22:10;;;;;;;6.10;3.10;;;18.90;90.80;;;;;;5107287;28;20034;-79
2021/09/24 07:24:36;;;;;;;8.93;4.25;;;19.40;89.50;;;;;;5107690;28;20032;-78
2021/09/24 07:27:02;;;;;;;5.65;2.85;;;19.90;87.30;;;;;;5107271;28;20030;-78
2021/09/24 07:29:28;;;;;;;7.55;3.70;;;20.10;85.80;;;;;;5108053;28;20027;-78
2021/09/24 07:31:53;;;;;;;6.07;3.40;;;20.40;84.00;;;;;;5107624;28;20100;-79
2021/09/24 07:34:19;;;;;;;4.97;2.65;;;20.70;82.00;;;;;;5107349;28;20562;-81
2021/09/24 07:36:45;;;;;;;3.55;2.33;;;21.00;80.90;;;;;;5107192;28;20094;-81
2021/09/24 07:39:10;;;;;;;8.18;2.13;;;21.20;79.40;;;;;;5105625;28;20092;-80
2021/09/24 07:41:36;;;;;;;4.20;2.10;;;21.30;78.40;;;;;;5107193;28;20059;-77
2021/09/24 07:44:04;;;;;;;5.53;2.20;;;21.30;78.30;;;;;;5107311;28;20045;-79
2021/09/24 07:46:30;;;;;;;3.92;1.60;;;21.50;76.90;;;;;;5106764;28;20024;-79
2021/09/24 07:48:56;;;;;;;6.40;1.42;;;21.60;76.40;;;;;;5107140;28;20038;-79
2021/09/24 07:51:22;;;;;;;6.43;1.70;;;21.70;75.90;;;;;;5106855;28;20482;-78
2021/09/24 07:53:47;;;;;;;2.90;1.67;;;21.90;73.30;;;;;;5105157;28;20486;-78
2021/09/24 07:56:15;;;;;;;3.83;1.50;;;22.20;71.70;;;;;;5105981;28;20028;-78
2021/09/24 07:58:40;;;;;;;3.60;1.60;;;22.20;70.20;;;;;;5105445;28;20416;-78
2021/09/24 08:01:08;;;;;;;5.78;1.67;;;22.10;70.20;;;;;;5107348;28;20020;-78
2021/09/24 08:03:35;;;;;;;6.07;1.70;;;22.40;69.40;;;;;;5105660;28;20087;-79
2021/09/24 08:06:01;;;;;;;5.20;1.67;;;22.50;69.10;;;;;;5105479;28;20020;-79
2021/09/24 08:08:26;;;;;;;2.33;1.30;;;22.70;68.00;;;;;;5106669;28;20043;-79
2021/09/24 08:10:52;;;;;;;5.20;1.60;;;23.10;67.30;;;;;;5106757;28;20015;-80
2021/09/24 08:13:18;;;;;;;5.25;2.03;;;23.40;66.50;;;;;;5107218;28;20507;-79
2021/09/24 08:15:44;;;;;;;2.33;1.55;;;23.70;65.30;;;;;;5107782;28;20392;-79
2021/09/24 08:18:16;;;;;;;1.80;1.45;;;24.00;62.80;;;;;;5108230;28;20054;-79
2021/09/24 08:20:42;;;;;;;7.65;1.45;;;24.00;62.30;;;;;;5106742;28;20036;-79
2021/09/24 08:23:09;;;;;;;2.95;1.63;;;23.60;63.00;;;;;;5108861;28;20070;-77
2021/09/24 08:25:34;;;;;;;6.13;1.98;;;23.40;62.90;;;;;;5105197;28;20055;-78
2021/09/24 08:28:01;;;;;;;3.95;1.77;;;23.60;63.10;;;;;;5105755;28;20062;-79
2021/09/24 08:30:28;;;;;;;8.50;1.50;;;23.80;62.30;;;;;;5105532;28;20066;-78
2021/09/24 08:32:55;;;;;;;1.98;1.23;;;24.20;61.50;;;;;;5107045;28;20032;-78
2021/09/24 08:35:22;;;;;;;4.22;1.20;;;24.60;59.70;;;;;;5106677;28;20120;-79
2021/09/24 08:37:49;;;;;;;4.10;1.25;;;24.80;59.20;;;;;;5106482;28;20028;-79
2021/09/24 08:40:17;;;;;;;8.40;1.33;;;25.20;57.60;;;;;;5105647;28;20035;-79
2021/09/24 08:42:44;;;;;;;3.97;1.65;;;25.50;55.60;;;;;;5106961;28;20067;-79
2021/09/24 08:45:26;;;;;;;3.25;1.33;;;25.60;53.80;;;;;;5105277;28;20067;-78
2021/09/24 08:47:54;;;;;;;4.13;1.35;;;25.60;53.90;;;;;;5106291;28;20543;-78
2021/09/24 08:50:20;;;;;;;4.25;1.45;;;25.60;53.80;;;;;;5105108;28;20510;-78
2021/09/24 08:52:46;;;;;;;7.30;1.65;;;25.70;53.70;;;;;;5106199;28;20437;-78
2021/09/24 08:55:12;;;;;;;11.00;1.52;;;25.30;53.40;;;;;;5106637;28;20095;-79
2021/09/24 08:57:41;;;;;;;4.20;1.23;;;24.90;54.80;;;;;;5105422;28;20027;-79
2021/09/24 09:00:07;;;;;;;2.83;1.50;;;24.50;55.60;;;;;;5106816;28;20408;-80
2021/09/24 09:02:57;;;;;;;3.38;1.23;;;24.10;56.70;;;;;;5106600;28;20031;-79
2021/09/24 09:05:24;;;;;;;3.15;1.20;;;23.70;57.60;;;;;;5107993;28;20027;-78
2021/09/24 09:08:03;;;;;;;3.13;1.90;;;23.40;58.30;;;;;;5109794;28;20028;-78
2021/09/24 09:10:41;;;;;;;6.82;1.67;;;23.00;59.00;;;;;;5109082;28;20026;-78
2021/09/24 09:13:09;;;;;;;3.47;1.13;;;22.80;59.70;;;;;;5109841;28;20114;-79
2021/09/24 09:15:35;;;;;;;2.40;1.40;;;22.40;60.70;;;;;;5110324;28;20074;-77
2021/09/24 09:18:01;;;;;;;7.32;1.50;;;22.30;60.80;;;;;;5109514;28;20032;-78
2021/09/24 09:20:30;;;;;;;2.13;1.10;;;22.10;61.30;;;;;;5109760;28;20040;-77
2021/09/24 09:22:58;;;;;;;1.92;0.95;;;22.20;60.90;;;;;;5109739;28;20122;-79
2021/09/24 09:25:33;;;;;;;9.68;1.08;;;22.60;59.90;;;;;;5110040;28;20091;-79
2021/09/24 09:28:03;;;;;;;2.05;1.25;;;23.30;59.30;;;;;;5109997;28;20115;-77
2021/09/24 09:30:30;;;;;;;2.05;0.80;;;24.20;56.50;;;;;;5109944;28;20484;-79
2021/09/24 09:33:15;;;;;;;5.90;1.40;;;24.60;53.90;;;;;;5110295;28;20074;-78
2021/09/24 09:35:50;;;;;;;4.93;1.08;;;24.70;54.50;;;;;;5109120;28;20036;-79
2021/09/24 09:38:39;;;;;;;2.30;1.20;;;25.00;53.90;;;;;;5110052;28;20047;-79
2021/09/24 09:41:11;;;;;;;3.53;1.27;;;25.50;52.00;;;;;;5109893;28;20059;-79
2021/09/24 09:43:41;;;;;;;1.58;0.70;;;25.30;51.20;;;;;;5108115;28;20483;-79
2021/09/24 09:46:22;;;;;;;7.22;1.17;;;25.20;50.90;;;;;;5109341;28;20028;-77
2021/09/24 09:49:06;;;;;;;6.15;1.08;;;25.10;51.20;;;;;;5109140;28;20020;-79
2021/09/24 09:51:33;;;;;;;6.65;1.33;;;25.00;52.30;;;;;;5109616;28;20031;-78
2021/09/24 09:53:59;;;;;;;3.28;1.40;;;25.00;51.70;;;;;;5107822;28;20032;-79
2021/09/24 09:56:35;;;;;;;6.15;1.00;;;25.20;51.40;;;;;;5107634;28;20169;-79
2021/09/24 09:59:01;;;;;;;8.68;1.60;;;25.30;51.50;;;;;;5109014;28;20028;-79
2021/09/24 10:01:26;;;;;;;5.40;1.20;;;25.40;51.20;;;;;;5109161;28;20038;-79
2021/09/24 10:03:53;;;;;;;2.10;0.77;;;25.50;51.20;;;;;;5107420;28;20177;-79
2021/09/24 10:06:35;;;;;;;10.98;1.40;;;25.20;51.80;;;;;;5108920;28;20030;-79
2021/09/24 10:09:04;;;;;;;2.70;1.25;;;25.20;52.50;;;;;;5105477;28;20074;-78
2021/09/24 10:11:34;;;;;;;3.35;1.13;;;25.50;50.40;;;;;;5108137;28;20035;-79
2021/09/24 10:14:21;;;;;;;2.28;1.23;;;25.30;50.60;;;;;;5103851;28;20039;-79
2021/09/24 10:16:48;;;;;;;7.53;1.20;;;25.00;51.70;;;;;;5106597;28;20104;-78
2021/09/24 10:19:16;;;;;;;8.45;1.50;;;24.60;52.80;;;;;;5108114;28;20051;-79
2021/09/24 10:21:42;;;;;;;5.90;1.48;;;24.50;53.60;;;;;;5107363;28;20599;-79
2021/09/24 10:24:08;;;;;;;5.00;1.40;;;24.60;53.00;;;;;;5107176;28;20039;-78
2021/09/24 10:26:43;;;;;;;4.68;1.30;;;24.50;51.80;;;;;;5108672;28;20518;-79
2021/09/24 10:29:19;;;;;;;5.82;1.30;;;24.40;52.90;;;;;;5107324;28;20039;-78
2021/09/24 10:31:50;;;;;;;11.80;1.27;;;24.60;52.70;;;;;;5108600;28;20020;-78
2021/09/24 10:34:22;;;;;;;7.70;1.23;;;24.40;53.00;;;;;;5107197;28;20024;-81
2021/09/24 10:37:09;;;;;;;3.03;1.27;;;24.20;53.50;;;;;;5107471;28;20032;-81
2021/09/24 10:39:37;;;;;;;8.52;1.60;;;24.00;54.40;;;;;;5108895;28;20023;-79
2021/09/24 10:42:25;;;;;;;4.35;1.45;;;23.70;55.60;;;;;;5108084;28;20015;-78
2021/09/24 10:45:32;;;;;;;8.57;1.20;;;23.70;55.30;;;;;;5108682;28;20046;-81
2021/09/24 10:48:20;;;;;;;6.65;1.00;;;23.50;56.80;;;;;;5108409;28;20488;-81
2021/09/24 10:50:53;;;;;;;7.90;1.00;;;23.30;56.20;;;;;;5106759;28;20064;-80
2021/09/24 10:53:23;;;;;;;2.05;0.75;;;23.10;54.90;;;;;;5108026;28;20050;-81
2021/09/24 10:55:52;;;;;;;4.22;0.82;;;23.20;54.50;;;;;;5107786;28;20027;-80
2021/09/24 10:58:26;;;;;;;4.15;0.98;;;23.10;53.60;;;;;;5104040;28;20163;-81
2021/09/24 11:01:14;;;;;;;8.90;1.02;;;23.00;53.60;;;;;;5104906;28;20040;-80
2021/09/24 11:04:12;;;;;;;3.08;1.13;;;23.00;55.30;;;;;;5105884;28;20446;-79
2021/09/24 11:06:47;;;;;;;1.70;0.77;;;23.00;55.60;;;;;;5099948;28;20093;-80
2021/09/24 11:09:18;;;;;;;3.30;0.98;;;23.10;55.00;;;;;;5097755;28;20035;-79
2021/09/24 11:11:46;;;;;;;2.67;0.75;;;23.10;54.40;;;;;;5105507;28;20043;-80
2021/09/24 11:14:31;;;;;;;3.50;0.85;;;23.10;54.60;;;;;;5107057;28;20118;-79
2021/09/24 11:16:58;;;;;;;11.57;1.10;;;23.00;55.50;;;;;;5104946;28;20035;-81
2021/09/24 11:19:39;;;;;;;2.67;1.10;;;23.00;55.60;;;;;;5104287;28;20046;-80
2021/09/24 11:22:09;;;;;;;5.22;1.27;;;23.10;55.40;;;;;;5105102;28;20035;-79
2021/09/24 11:24:41;;;;;;;4.43;0.90;;;23.10;55.60;;;;;;5105374;28;20506;-79
2021/09/24 11:27:11;;;;;;;6.28;1.05;;;23.10;54.30;;;;;;5103352;28;20039;-80
2021/09/24 11:30:05;;;;;;;7.72;1.00;;;23.00;54.70;;;;;;5105875;28;20051;-80
2021/09/24 11:32:41;;;;;;;2.42;0.90;;;23.00;54.90;;;;;;5080214;28;20196;-79
2021/09/24 11:35:12;;;;;;;3.65;0.90;;;23.00;54.40;;;;;;5103068;28;20043;-80
2021/09/24 11:37:41;;;;;;;2.80;0.80;;;23.00;54.00;;;;;;5103521;28;20036;-78
2021/09/24 11:40:07;;;;;;;5.93;1.05;;;23.20;54.10;;;;;;5102942;28;20232;-79
2021/09/24 11:42:35;;;;;;;1.83;1.00;;;23.10;55.20;;;;;;5103032;28;20411;-78
2021/09/24 11:45:05;;;;;;;4.28;0.80;;;23.20;55.10;;;;;;5104758;28;20051;-79
2021/09/24 11:47:40;;;;;;;6.10;0.93;;;23.40;54.10;;;;;;5103625;28;20028;-78
2021/09/24 11:50:15;;;;;;;4.78;0.60;;;23.50;53.20;;;;;;5105149;28;20043;-80
2021/09/24 11:52:52;;;;;;;4.78;0.80;;;23.50;52.80;;;;;;5104310;28;20043;-78
2021/09/24 11:55:25;;;;;;;3.28;0.60;;;23.40;52.30;;;;;;5104701;28;20035;-78
2021/09/24 11:58:00;;;;;;;3.03;0.60;;;23.20;53.00;;;;;;5105926;28;20077;-78
2021/09/24 12:00:31;;;;;;;5.15;0.70;;;23.20;50.70;;;;;;5103929;28;20081;-78
2021/09/24 12:03:08;;;;;;;2.47;0.50;;;23.10;50.80;;;;;;5104399;28;20067;-78
2021/09/24 12:05:34;;;;;;;1.80;0.60;;;23.00;50.50;;;;;;5098523;28;20030;-79
2021/09/24 12:08:00;;;;;;;4.65;0.60;;;22.90;50.70;;;;;;5104852;28;20036;-79
2021/09/24 12:10:30;;;;;;;5.05;0.57;;;22.70;50.50;;;;;;5106113;28;20042;-80
2021/09/24 12:13:07;;;;;;;3.60;0.73;;;22.60;51.10;;;;;;5106835;28;20053;-78
2021/09/24 12:15:58;;;;;;;0.85;0.40;;;22.60;50.80;;;;;;5107182;28;20063;-80
2021/09/24 12:18:42;;;;;;;2.05;0.50;;;22.40;50.70;;;;;;5105174;28;20035;-80
2021/09/24 12:21:07;;;;;;;9.70;0.50;;;22.30;50.90;;;;;;5107025;28;20059;-80
2021/09/24 12:23:33;;;;;;;1.73;0.60;;;22.10;51.80;;;;;;5105756;28;20476;-79
2021/09/24 12:26:01;;;;;;;5.05;0.43;;;21.90;52.30;;;;;;5107010;28;20031;-79
2021/09/24 12:28:27;;;;;;;1.63;0.50;;;21.90;51.70;;;;;;5106588;28;20054;-79
2021/09/24 12:30:53;;;;;;;6.72;0.50;;;21.70;51.50;;;;;;5105554;28;20035;-79
2021/09/24 12:33:22;;;;;;;1.63;0.70;;;21.70;52.30;;;;;;5106603;28;20099;-80
2021/09/24 12:36:03;;;;;;;1.50;0.50;;;21.60;52.70;;;;;;5106922;28;20031;-79
2021/09/24 12:38:31;;;;;;;1.58;0.60;;;21.50;52.90;;;;;;5107755;28;20112;-80
2021/09/24 12:41:09;;;;;;;6.45;1.17;;;21.60;53.00;;;;;;5111229;28;20125;-79
2021/09/24 12:43:36;;;;;;;1.58;0.60;;;21.70;51.40;;;;;;5110733;28;20046;-78
2021/09/24 12:46:03;;;;;;;2.00;0.60;;;21.70;51.30;;;;;;5110435;28;20126;-79
2021/09/24 12:48:44;;;;;;;2.58;0.77;;;21.80;50.00;;;;;;5109094;28;20080;-80
2021/09/24 12:51:13;;;;;;;2.10;0.40;;;21.80;48.90;;;;;;5110680;28;20102;-80
2021/09/24 12:53:41;;;;;;;1.42;0.55;;;21.80;50.60;;;;;;5108758;28;20059;-80
2021/09/24 12:56:07;;;;;;;1.30;0.40;;;21.80;51.30;;;;;;5110536;28;20050;-80
2021/09/24 12:58:41;;;;;;;4.88;0.65;;;21.80;50.50;;;;;;5110217;28;20503;-78
2021/09/24 13:01:10;;;;;;;0.90;0.45;;;21.70;50.40;;;;;;5110399;28;20024;-80
2021/09/24 13:03:41;;;;;;;3.72;0.50;;;21.70;50.20;;;;;;5109939;28;20825;-78
2021/09/24 13:06:09;;;;;;;1.02;0.40;;;21.50;50.40;;;;;;5108868;28;20488;-80
2021/09/24 13:08:35;;;;;;;1.15;0.50;;;21.50;51.20;;;;;;5108988;28;20048;-79